createdAt,value
2017-04-21T00:00:38.289Z,19.40
2017-04-21T00:01:32.745Z,19.40
2017-04-21T00:02:32.343Z,19.39
2017-04-21T00:03:38.665Z,19.39
2017-04-21T00:04:39.493Z,19.39
2017-04-21T00:05:43.574Z,19.39
2017-04-21T00:06:45.834Z,19.38
2017-04-21T00:07:44.398Z,19.38
2017-04-21T00:08:39.024Z,19.39
2017-04-21T00:09:39.128Z,19.38
2017-04-21T00:10:38.249Z,19.38
2017-04-21T00:11:37.449Z,19.38
2017-04-21T00:12:50.623Z,19.38
2017-04-21T00:13:35.321Z,19.38
2017-04-21T00:14:33.354Z,19.38
2017-04-21T00:15:43.107Z,19.38
2017-04-21T00:16:39.571Z,19.93
2017-04-21T00:17:44.807Z,19.99
2017-04-21T00:18:44.181Z,19.49
2017-04-21T00:19:38.682Z,19.45
2017-04-21T00:20:44.311Z,19.43
2017-04-21T00:21:39.561Z,19.43
2017-04-21T00:22:38.342Z,19.43
2017-04-21T00:23:47.188Z,19.42
2017-04-21T00:24:47.186Z,19.41
2017-04-21T00:25:31.584Z,19.42
2017-04-21T00:26:38.703Z,19.42
2017-04-21T00:27:45.427Z,19.48
2017-04-21T00:28:38.930Z,19.43
2017-04-21T00:29:38.577Z,19.43
2017-04-21T00:30:31.826Z,19.43
2017-04-21T00:31:44.452Z,19.43
2017-04-21T00:32:43.854Z,19.43
2017-04-21T00:33:42.336Z,19.43
2017-04-21T00:34:33.480Z,19.43
2017-04-21T00:35:37.175Z,19.43
2017-04-21T00:36:32.732Z,19.43
2017-04-21T00:37:34.131Z,19.44
2017-04-21T00:38:34.784Z,19.43
2017-04-21T00:39:38.766Z,19.43
2017-04-21T00:40:39.192Z,19.43
2017-04-21T00:41:40.066Z,19.42
2017-04-21T00:42:40.046Z,19.43
2017-04-21T00:43:35.208Z,19.43
2017-04-21T00:44:38.673Z,19.44
2017-04-21T00:45:39.438Z,19.42
2017-04-21T00:46:43.714Z,19.43
2017-04-21T00:47:40.447Z,19.42
2017-04-21T00:48:57.112Z,19.42
2017-04-21T00:49:35.650Z,19.42
2017-04-21T00:50:55.685Z,19.42
2017-04-21T00:51:41.038Z,19.42
2017-04-21T00:52:35.660Z,19.42
2017-04-21T00:53:34.759Z,19.43
2017-04-21T00:54:42.883Z,19.42
2017-04-21T00:55:44.456Z,19.41
2017-04-21T00:56:37.232Z,19.41
2017-04-21T00:57:49.575Z,19.43
2017-04-21T00:58:38.741Z,19.95
2017-04-21T00:59:38.852Z,20.00
2017-04-21T01:00:38.946Z,20.02
2017-04-21T01:01:39.122Z,20.04
2017-04-21T01:02:42.573Z,20.04
2017-04-21T01:03:49.241Z,19.51
2017-04-21T01:04:57.572Z,19.47
2017-04-21T01:05:45.600Z,19.44
2017-04-21T01:06:47.894Z,19.45
2017-04-21T01:07:48.324Z,19.46
2017-04-21T01:08:41.553Z,19.96
2017-04-21T01:09:47.042Z,20.00
2017-04-21T01:10:49.923Z,19.49
2017-04-21T01:11:47.835Z,19.45
2017-04-21T01:12:31.824Z,19.44
2017-04-21T01:14:57.067Z,19.42
2017-04-21T01:15:44.375Z,19.42
2017-04-21T01:16:39.690Z,19.96
2017-04-21T01:17:32.058Z,19.99
2017-04-21T01:18:43.529Z,20.03
2017-04-21T01:19:47.454Z,20.04
2017-04-21T01:20:47.256Z,20.05
2017-04-21T01:21:48.617Z,20.04
2017-04-21T01:22:37.548Z,20.06
2017-04-21T01:23:50.008Z,20.06
2017-04-21T01:24:48.726Z,20.07
2017-04-21T01:25:38.596Z,19.73
2017-04-21T01:26:35.327Z,19.52
2017-04-21T01:27:38.749Z,19.46
2017-04-21T01:28:39.321Z,19.51
2017-04-21T01:29:44.164Z,19.43
2017-04-21T01:30:37.338Z,19.43
2017-04-21T01:31:49.285Z,19.43
2017-04-21T01:32:42.888Z,19.42
2017-04-21T01:33:42.865Z,19.42
2017-04-21T01:34:39.106Z,19.45
2017-04-21T01:35:47.871Z,19.60
2017-04-21T01:36:39.434Z,19.46
2017-04-21T01:37:44.274Z,19.43
2017-04-21T01:38:44.290Z,19.42
2017-04-21T01:39:44.979Z,19.41
2017-04-21T01:40:40.074Z,19.41
2017-04-21T01:41:43.021Z,19.41
2017-04-21T01:42:38.530Z,19.41
2017-04-21T01:43:36.831Z,19.40
2017-04-21T01:44:44.936Z,19.41
2017-04-21T01:45:48.296Z,19.42
2017-04-21T01:46:42.039Z,19.41
2017-04-21T01:47:43.783Z,19.41
2017-04-21T01:48:38.998Z,19.41
2017-04-21T01:49:53.540Z,19.41
2017-04-21T01:50:37.117Z,19.40
2017-04-21T01:51:43.301Z,19.40
2017-04-21T01:52:33.534Z,19.40
2017-04-21T01:53:38.631Z,19.41
2017-04-21T01:54:39.032Z,19.40
2017-04-21T01:55:35.064Z,19.40
2017-04-21T01:56:45.423Z,19.40
2017-04-21T01:57:52.011Z,19.40
2017-04-21T01:58:51.967Z,19.40
2017-04-21T01:59:41.521Z,19.40
2017-04-21T02:00:43.958Z,19.41
2017-04-21T02:01:32.844Z,19.40
2017-04-21T02:02:42.425Z,19.94
2017-04-21T02:03:33.354Z,19.98
2017-04-21T02:04:28.392Z,20.01
2017-04-21T02:05:37.772Z,19.66
2017-04-21T02:06:39.199Z,19.57
2017-04-21T02:07:33.883Z,19.45
2017-04-21T02:08:38.758Z,19.43
2017-04-21T02:09:34.999Z,19.96
2017-04-21T02:10:33.520Z,19.98
2017-04-21T02:11:37.286Z,20.00
2017-04-21T02:12:33.139Z,20.03
2017-04-21T02:13:34.479Z,20.03
2017-04-21T02:14:37.801Z,20.03
2017-04-21T02:15:52.820Z,20.04
2017-04-21T02:16:47.640Z,20.04
2017-04-21T02:17:37.059Z,19.70
2017-04-21T02:18:39.300Z,19.51
2017-04-21T02:19:44.790Z,19.45
2017-04-21T02:20:39.222Z,19.43
2017-04-21T02:21:39.631Z,19.42
2017-04-21T02:22:38.717Z,19.41
2017-04-21T02:23:43.812Z,19.40
2017-04-21T02:24:39.268Z,19.40
2017-04-21T02:25:39.350Z,19.40
2017-04-21T02:26:37.253Z,19.40
2017-04-21T02:27:47.913Z,19.39
2017-04-21T02:28:38.780Z,19.39
2017-04-21T02:29:38.666Z,19.39
2017-04-21T02:30:39.370Z,19.40
2017-04-21T02:31:39.481Z,19.39
2017-04-21T02:32:34.844Z,19.39
2017-04-21T02:33:44.774Z,19.39
2017-04-21T02:34:40.029Z,19.37
2017-04-21T02:35:32.636Z,19.38
2017-04-21T02:36:33.238Z,19.38
2017-04-21T02:37:34.652Z,19.57
2017-04-21T02:38:34.909Z,19.43
2017-04-21T02:39:34.839Z,19.40
2017-04-21T02:40:38.802Z,19.40
2017-04-21T02:41:39.757Z,19.39
2017-04-21T02:42:37.679Z,19.38
2017-04-21T02:43:39.756Z,19.38
2017-04-21T02:44:38.809Z,19.44
2017-04-21T02:45:33.203Z,19.37
2017-04-21T02:46:37.759Z,19.38
2017-04-21T02:47:43.359Z,19.39
2017-04-21T02:48:53.464Z,19.38
2017-04-21T02:49:37.861Z,19.38
2017-04-21T02:50:43.679Z,19.37
2017-04-21T02:51:35.270Z,19.37
2017-04-21T02:52:39.811Z,19.37
2017-04-21T02:53:38.601Z,19.37
2017-04-21T02:54:49.545Z,19.37
2017-04-21T02:55:43.473Z,19.37
2017-04-21T02:56:38.981Z,19.37
2017-04-21T02:57:34.294Z,19.37
2017-04-21T02:58:43.130Z,19.37
2017-04-21T02:59:43.213Z,19.37
2017-04-21T03:00:43.031Z,19.37
2017-04-21T03:01:44.613Z,19.37
2017-04-21T03:02:38.523Z,19.56
2017-04-21T03:03:34.549Z,19.42
2017-04-21T03:04:35.291Z,19.39
2017-04-21T03:05:35.210Z,19.38
2017-04-21T03:06:40.897Z,19.37
2017-04-21T03:07:33.485Z,19.37
2017-04-21T03:08:32.853Z,19.36
2017-04-21T03:09:32.918Z,19.36
2017-04-21T03:10:34.310Z,19.38
2017-04-21T03:11:39.714Z,19.36
2017-04-21T03:12:49.059Z,19.35
2017-04-21T03:13:33.254Z,19.36
2017-04-21T03:14:34.978Z,19.36
2017-04-21T03:15:37.075Z,19.36
2017-04-21T03:16:39.720Z,19.35
2017-04-21T03:17:38.095Z,19.35
2017-04-21T03:18:47.161Z,19.35
2017-04-21T03:19:37.311Z,19.36
2017-04-21T03:20:38.814Z,19.36
2017-04-21T03:21:34.337Z,19.36
2017-04-21T03:22:33.508Z,19.43
2017-04-21T03:23:34.352Z,19.36
2017-04-21T03:24:40.207Z,19.35
2017-04-21T03:25:34.278Z,19.35
2017-04-21T03:26:39.597Z,19.36
2017-04-21T03:27:48.162Z,19.36
2017-04-21T03:28:33.698Z,19.36
2017-04-21T03:29:44.404Z,19.89
2017-04-21T03:30:50.040Z,19.94
2017-04-21T03:31:38.754Z,19.61
2017-04-21T03:32:39.216Z,19.45
2017-04-21T03:33:43.713Z,19.41
2017-04-21T03:34:39.449Z,19.38
2017-04-21T03:35:39.820Z,19.38
2017-04-21T03:36:33.857Z,19.37
2017-04-21T03:37:39.450Z,19.38
2017-04-21T03:38:52.771Z,19.37
2017-04-21T03:39:41.011Z,19.37
2017-04-21T03:40:32.816Z,19.37
2017-04-21T03:41:38.167Z,19.37
2017-04-21T03:42:43.110Z,19.37
2017-04-21T03:43:38.950Z,19.38
2017-04-21T03:44:50.294Z,19.37
2017-04-21T03:45:39.792Z,19.37
2017-04-21T03:46:34.935Z,19.37
2017-04-21T03:47:29.041Z,19.37
2017-04-21T03:48:39.224Z,19.38
2017-04-21T03:49:34.380Z,19.38
2017-04-21T03:50:43.763Z,19.38
2017-04-21T03:51:41.625Z,19.37
2017-04-21T03:52:32.792Z,19.37
2017-04-21T03:53:38.680Z,19.37
2017-04-21T03:54:34.950Z,19.36
2017-04-21T03:55:44.423Z,19.37
2017-04-21T03:56:45.031Z,19.37
2017-04-21T03:57:38.660Z,19.37
2017-04-21T03:58:39.884Z,19.37
2017-04-21T03:59:40.062Z,19.37
2017-04-21T04:00:34.430Z,19.37
2017-04-21T04:01:33.541Z,19.37
2017-04-21T04:02:37.207Z,19.92
2017-04-21T04:03:38.522Z,19.97
2017-04-21T04:04:33.555Z,19.98
2017-04-21T04:05:33.440Z,19.99
2017-04-21T04:06:49.036Z,20.00
2017-04-21T04:07:38.706Z,19.68
2017-04-21T04:08:40.044Z,19.48
2017-04-21T04:09:38.961Z,19.43
2017-04-21T04:10:34.763Z,19.41
2017-04-21T04:11:42.943Z,19.39
2017-04-21T04:12:39.101Z,19.39
2017-04-21T04:13:44.935Z,19.37
2017-04-21T04:14:33.305Z,19.38
2017-04-21T04:15:33.193Z,19.38
2017-04-21T04:16:34.728Z,19.38
2017-04-21T04:17:40.665Z,19.37
2017-04-21T04:18:36.027Z,19.37
2017-04-21T04:19:35.384Z,19.37
2017-04-21T04:20:35.054Z,19.36
2017-04-21T04:21:40.046Z,19.42
2017-04-21T04:22:39.211Z,19.36
2017-04-21T04:23:44.623Z,19.36
2017-04-21T04:24:44.220Z,19.37
2017-04-21T04:27:09.105Z,19.37
2017-04-21T04:27:47.798Z,19.36
2017-04-21T04:28:44.556Z,19.37
2017-04-21T04:29:43.309Z,19.36
2017-04-21T04:30:39.202Z,19.36
2017-04-21T04:31:47.249Z,19.36
2017-04-21T04:32:35.139Z,19.36
2017-04-21T04:33:32.965Z,19.37
2017-04-21T04:34:38.737Z,19.39
2017-04-21T04:35:38.637Z,19.89
2017-04-21T04:36:32.747Z,19.95
2017-04-21T04:37:39.234Z,19.98
2017-04-21T04:38:39.658Z,19.98
2017-04-21T04:39:39.754Z,19.46
2017-04-21T04:40:39.236Z,19.41
2017-04-21T04:41:37.997Z,19.43
2017-04-21T04:42:39.335Z,19.37
2017-04-21T04:43:52.174Z,19.37
2017-04-21T04:44:37.166Z,19.37
2017-04-21T04:45:42.950Z,19.36
2017-04-21T04:46:33.102Z,19.36
2017-04-21T04:47:42.507Z,19.36
2017-04-21T04:48:46.682Z,19.36
2017-04-21T04:49:37.175Z,19.35
2017-04-21T04:50:44.438Z,19.39
2017-04-21T04:51:39.349Z,19.90
2017-04-21T04:52:34.798Z,19.94
2017-04-21T04:53:34.416Z,19.96
2017-04-21T04:54:43.948Z,19.65
2017-04-21T04:55:40.053Z,19.45
2017-04-21T04:56:39.980Z,19.40
2017-04-21T04:57:41.601Z,19.38
2017-04-21T04:58:38.621Z,19.44
2017-04-21T04:59:43.511Z,19.37
2017-04-21T05:00:38.990Z,19.36
2017-04-21T05:01:38.832Z,19.37
2017-04-21T05:02:38.331Z,19.37
2017-04-21T05:03:38.719Z,19.37
2017-04-21T05:04:34.431Z,19.37
2017-04-21T05:05:35.456Z,19.37
2017-04-21T05:06:37.172Z,19.39
2017-04-21T05:07:38.153Z,19.37
2017-04-21T05:08:32.929Z,19.90
2017-04-21T05:09:32.752Z,19.96
2017-04-21T05:10:38.165Z,19.99
2017-04-21T05:11:33.938Z,19.99
2017-04-21T05:12:33.273Z,20.00
2017-04-21T05:13:27.505Z,20.01
2017-04-21T05:14:39.388Z,20.00
2017-04-21T05:15:34.454Z,20.01
2017-04-21T05:16:32.973Z,19.52
2017-04-21T05:17:43.106Z,19.44
2017-04-21T05:18:33.824Z,19.41
2017-04-21T05:19:38.506Z,19.40
2017-04-21T05:20:37.198Z,19.39
2017-04-21T05:21:31.939Z,19.39
2017-04-21T05:22:33.258Z,19.39
2017-04-21T05:23:32.912Z,19.38
2017-04-21T05:24:33.720Z,19.38
2017-04-21T05:25:40.069Z,19.39
2017-04-21T05:26:33.891Z,19.39
2017-04-21T05:27:42.189Z,19.39
2017-04-21T05:28:32.874Z,19.38
2017-04-21T05:29:33.202Z,19.39
2017-04-21T05:30:42.969Z,19.38
2017-04-21T05:31:32.549Z,19.38
2017-04-21T05:32:38.013Z,19.38
2017-04-21T05:33:33.932Z,19.38
2017-04-21T05:34:38.500Z,19.45
2017-04-21T05:35:33.962Z,19.39
2017-04-21T05:36:34.431Z,19.39
2017-04-21T05:37:38.230Z,19.40
2017-04-21T05:38:34.097Z,19.45
2017-04-21T05:39:27.763Z,19.39
2017-04-21T05:40:20.745Z,19.39
2017-04-21T05:41:26.070Z,19.39
2017-04-21T05:42:31.430Z,19.39
2017-04-21T05:43:34.184Z,19.38
2017-04-21T05:44:37.920Z,19.40
2017-04-21T05:45:35.158Z,19.39
2017-04-21T05:46:33.223Z,19.39
2017-04-21T05:47:27.842Z,19.40
2017-04-21T05:48:33.769Z,19.39
2017-04-21T05:49:33.353Z,19.45
2017-04-21T05:50:30.199Z,19.39
2017-04-21T05:51:31.243Z,19.40
2017-04-21T05:52:33.085Z,19.40
2017-04-21T05:53:26.070Z,19.40
2017-04-21T05:54:36.433Z,19.40
2017-04-21T05:55:42.707Z,19.40
2017-04-21T05:56:44.848Z,19.39
2017-04-21T05:57:33.567Z,19.42
2017-04-21T05:58:34.901Z,19.39
2017-04-21T05:59:34.879Z,19.39
2017-04-21T06:00:44.660Z,19.39
2017-04-21T06:01:47.146Z,19.39
2017-04-21T06:02:36.993Z,19.39
2017-04-21T06:03:37.195Z,19.39
2017-04-21T06:04:39.093Z,19.39
2017-04-21T06:05:38.688Z,19.39
2017-04-21T06:06:43.523Z,19.37
2017-04-21T06:07:39.813Z,19.12
2017-04-21T06:08:39.466Z,18.25
2017-04-21T06:09:34.243Z,18.05
2017-04-21T06:10:34.899Z,17.77
2017-04-21T06:11:38.965Z,17.51
2017-04-21T06:12:26.999Z,17.30
2017-04-21T06:13:32.810Z,16.89
2017-04-21T06:14:32.946Z,16.73
2017-04-21T06:15:37.147Z,16.39
2017-04-21T06:16:38.706Z,16.38
2017-04-21T06:17:39.545Z,16.45
2017-04-21T06:18:44.397Z,16.42
2017-04-21T06:19:39.238Z,16.19
2017-04-21T06:20:34.247Z,16.47
2017-04-21T06:21:51.327Z,16.69
2017-04-21T06:22:43.021Z,16.95
2017-04-21T06:23:33.594Z,17.13
2017-04-21T06:24:33.298Z,17.32
2017-04-21T06:25:33.116Z,17.46
2017-04-21T06:26:33.765Z,17.61
2017-04-21T06:27:34.583Z,17.70
2017-04-21T06:28:43.554Z,17.79
2017-04-21T06:29:43.688Z,17.87
2017-04-21T06:30:39.927Z,17.93
2017-04-21T06:31:39.446Z,17.99
2017-04-21T06:32:39.722Z,18.04
2017-04-21T06:33:39.266Z,18.08
2017-04-21T06:34:40.551Z,18.13
2017-04-21T06:35:32.086Z,18.16
2017-04-21T06:36:33.126Z,18.21
2017-04-21T06:37:39.078Z,18.24
2017-04-21T06:38:43.579Z,18.27
2017-04-21T06:39:38.939Z,18.30
2017-04-21T06:40:42.305Z,18.31
2017-04-21T06:41:37.172Z,18.33
2017-04-21T06:42:47.868Z,18.35
2017-04-21T06:43:39.056Z,18.36
2017-04-21T06:44:33.489Z,18.38
2017-04-21T06:45:32.950Z,18.40
2017-04-21T06:46:50.526Z,18.42
2017-04-21T06:47:39.255Z,18.42
2017-04-21T06:48:39.796Z,18.43
2017-04-21T06:49:38.246Z,18.46
2017-04-21T06:50:35.305Z,18.47
2017-04-21T06:51:43.958Z,18.48
2017-04-21T06:52:39.514Z,18.48
2017-04-21T06:53:40.034Z,18.50
2017-04-21T06:54:35.019Z,18.51
2017-04-21T06:55:39.073Z,18.54
2017-04-21T06:56:38.876Z,18.54
2017-04-21T06:57:45.858Z,18.54
2017-04-21T06:58:45.555Z,18.56
2017-04-21T06:59:33.209Z,18.58
2017-04-21T07:00:53.246Z,18.58
2017-04-21T07:01:37.484Z,18.58
2017-04-21T07:02:37.244Z,18.59
2017-04-21T07:03:39.643Z,18.60
2017-04-21T07:04:38.758Z,18.61
2017-04-21T07:05:29.696Z,18.61
2017-04-21T07:06:34.281Z,18.63
2017-04-21T07:07:39.718Z,18.64
2017-04-21T07:08:41.028Z,18.64
2017-04-21T07:09:37.972Z,18.65
2017-04-21T07:10:47.281Z,18.70
2017-04-21T07:11:38.728Z,18.68
2017-04-21T07:12:34.322Z,18.68
2017-04-21T07:13:41.352Z,18.69
2017-04-21T07:14:40.040Z,18.71
2017-04-21T07:15:41.131Z,18.71
2017-04-21T07:16:47.083Z,18.72
2017-04-21T07:17:42.980Z,18.73
2017-04-21T07:18:46.192Z,18.73
2017-04-21T07:19:37.432Z,18.74
2017-04-21T07:20:46.387Z,18.75
2017-04-21T07:21:40.941Z,18.75
2017-04-21T07:22:37.517Z,18.76
2017-04-21T07:23:38.528Z,18.76
2017-04-21T07:24:39.220Z,18.76
2017-04-21T07:25:35.979Z,18.77
2017-04-21T07:26:39.487Z,18.77
2017-04-21T07:27:34.298Z,18.78
2017-04-21T07:28:34.408Z,18.78
2017-04-21T07:29:44.034Z,18.78
2017-04-21T07:31:40.093Z,19.37
2017-04-21T07:32:33.086Z,19.40
2017-04-21T07:33:33.269Z,19.14
2017-04-21T07:34:40.239Z,18.90
2017-04-21T07:36:44.400Z,18.85
2017-04-21T07:37:49.826Z,18.84
2017-04-21T07:38:39.284Z,18.87
2017-04-21T07:39:37.127Z,18.83
2017-04-21T07:40:44.866Z,18.90
2017-04-21T07:41:40.018Z,18.83
2017-04-21T07:42:41.338Z,18.83
2017-04-21T07:43:36.526Z,18.84
2017-04-21T07:44:32.711Z,18.85
2017-04-21T07:45:43.216Z,18.85
2017-04-21T07:46:49.806Z,18.85
2017-04-21T07:47:38.875Z,18.86
2017-04-21T07:48:39.485Z,18.86
2017-04-21T07:49:33.717Z,18.86
2017-04-21T07:50:29.829Z,18.87
2017-04-21T07:51:39.332Z,18.87
2017-04-21T07:52:45.001Z,18.88
2017-04-21T07:53:46.327Z,18.89
2017-04-21T07:54:45.683Z,18.89
2017-04-21T07:55:34.627Z,18.89
2017-04-21T07:56:33.335Z,18.89
2017-04-21T07:57:39.079Z,18.90
2017-04-21T07:58:40.233Z,18.91
2017-04-21T07:59:35.336Z,18.91
2017-04-21T08:01:47.350Z,18.93
2017-04-21T08:02:45.754Z,18.94
2017-04-21T08:03:36.029Z,18.96
2017-04-21T08:04:40.074Z,18.97
2017-04-21T08:05:38.572Z,19.05
2017-04-21T08:06:44.166Z,18.99
2017-04-21T08:07:38.064Z,19.52
2017-04-21T08:08:39.229Z,19.58
2017-04-21T08:09:35.277Z,19.63
2017-04-21T08:10:34.601Z,19.38
2017-04-21T08:11:40.089Z,19.14
2017-04-21T08:12:35.024Z,19.14
2017-04-21T08:13:39.198Z,19.08
2017-04-21T08:14:35.332Z,19.09
2017-04-21T08:15:39.439Z,19.09
2017-04-21T08:16:42.259Z,19.10
2017-04-21T08:17:33.465Z,19.10
2017-04-21T08:18:37.475Z,19.11
2017-04-21T08:19:39.224Z,19.11
2017-04-21T08:20:40.028Z,19.18
2017-04-21T08:21:38.633Z,19.14
2017-04-21T08:22:34.341Z,19.12
2017-04-21T08:23:39.498Z,19.13
2017-04-21T08:24:42.915Z,19.15
2017-04-21T08:25:41.450Z,19.14
2017-04-21T08:26:39.646Z,19.16
2017-04-21T08:27:42.884Z,19.15
2017-04-21T08:28:32.707Z,19.15
2017-04-21T08:29:34.231Z,19.16
2017-04-21T08:30:43.448Z,19.19
2017-04-21T08:31:45.101Z,19.70
2017-04-21T08:32:35.117Z,19.22
2017-04-21T08:33:40.104Z,19.20
2017-04-21T08:34:45.215Z,19.18
2017-04-21T08:35:39.548Z,19.17
2017-04-21T08:36:44.923Z,19.16
2017-04-21T08:37:38.566Z,19.15
2017-04-21T08:38:34.373Z,19.15
2017-04-21T08:39:32.300Z,19.15
2017-04-21T08:40:39.484Z,19.15
2017-04-21T08:41:39.865Z,19.15
2017-04-21T08:42:38.700Z,19.15
2017-04-21T08:43:39.731Z,19.15
2017-04-21T08:44:43.777Z,19.16
2017-04-21T08:45:37.091Z,19.17
2017-04-21T08:46:41.657Z,19.17
2017-04-21T08:47:38.714Z,19.18
2017-04-21T08:48:43.506Z,19.17
2017-04-21T08:49:43.976Z,19.18
2017-04-21T08:50:39.627Z,19.17
2017-04-21T08:51:43.095Z,19.20
2017-04-21T08:52:32.927Z,19.17
2017-04-21T08:53:39.814Z,19.17
2017-04-21T08:54:55.926Z,19.17
2017-04-21T08:55:38.844Z,19.18
2017-04-21T08:56:35.031Z,19.19
2017-04-21T08:57:45.813Z,19.19
2017-04-21T08:58:44.509Z,19.19
2017-04-21T08:59:54.142Z,19.20
2017-04-21T09:00:43.549Z,19.20
2017-04-21T09:01:39.262Z,19.20
2017-04-21T09:02:37.971Z,19.21
2017-04-21T09:03:34.231Z,19.22
2017-04-21T09:04:33.702Z,19.22
2017-04-21T09:05:39.644Z,19.22
2017-04-21T09:06:39.571Z,19.22
2017-04-21T09:07:52.937Z,19.23
2017-04-21T09:08:47.137Z,19.24
2017-04-21T09:09:35.939Z,19.24
2017-04-21T09:10:33.034Z,19.25
2017-04-21T09:11:32.962Z,19.24
2017-04-21T09:12:32.812Z,19.24
2017-04-21T09:13:42.991Z,19.24
2017-04-21T09:14:49.212Z,19.25
2017-04-21T09:15:38.189Z,19.25
2017-04-21T09:16:39.889Z,19.25
2017-04-21T09:17:42.898Z,19.26
2017-04-21T09:18:38.879Z,19.26
2017-04-21T09:19:40.123Z,19.26
2017-04-21T09:20:39.572Z,19.27
2017-04-21T09:21:37.205Z,19.27
2017-04-21T09:22:34.836Z,19.28
2017-04-21T09:23:42.177Z,19.28
2017-04-21T09:24:39.125Z,19.33
2017-04-21T09:25:34.712Z,19.29
2017-04-21T09:26:44.185Z,19.29
2017-04-21T09:27:39.377Z,19.29
2017-04-21T09:28:40.260Z,19.30
2017-04-21T09:29:44.236Z,19.31
2017-04-21T09:30:38.703Z,19.30
2017-04-21T09:32:04.169Z,19.31
2017-04-21T09:34:45.714Z,19.31
2017-04-21T09:34:56.449Z,19.31
2017-04-21T09:35:40.882Z,19.32
2017-04-21T09:36:24.000Z,19.31
2017-04-21T09:36:40.250Z,19.32
2017-04-21T09:37:39.015Z,19.33
2017-04-21T09:38:45.454Z,19.33
2017-04-21T09:39:39.247Z,19.33
2017-04-21T09:40:47.137Z,19.34
2017-04-21T09:41:39.439Z,19.35
2017-04-21T09:43:49.337Z,19.34
2017-04-21T09:44:26.450Z,19.34
2017-04-21T09:44:52.862Z,19.34
2017-04-21T09:45:47.197Z,19.34
2017-04-21T09:46:39.045Z,19.34
2017-04-21T09:47:38.288Z,19.34
2017-04-21T09:48:33.504Z,19.34
2017-04-21T09:49:38.489Z,19.34
2017-04-21T09:51:42.859Z,19.35
2017-04-21T09:57:50.278Z,19.34
2017-04-21T09:58:48.126Z,19.35
2017-04-21T09:59:39.086Z,19.35
2017-04-21T10:00:24.441Z,19.34
2017-04-21T10:01:37.158Z,19.35
2017-04-21T10:02:22.890Z,19.36
2017-04-21T10:03:37.022Z,19.35
2017-04-21T10:04:40.562Z,19.35
2017-04-21T10:05:49.780Z,19.36
2017-04-21T10:06:25.400Z,19.35
2017-04-21T10:07:27.123Z,19.37
2017-04-21T10:08:22.288Z,19.37
2017-04-21T10:08:27.683Z,19.36
2017-04-21T10:08:43.399Z,19.37
2017-04-21T10:08:43.407Z,19.36
2017-04-21T10:08:48.757Z,19.37
2017-04-21T10:09:04.376Z,19.38
2017-04-21T10:09:04.401Z,19.37
2017-04-21T10:09:47.277Z,19.38
2017-04-21T10:10:37.435Z,19.39
2017-04-21T10:11:34.314Z,19.39
2017-04-21T10:12:34.488Z,19.39
2017-04-21T10:13:38.243Z,19.39
2017-04-21T10:14:32.918Z,19.39
2017-04-21T10:15:33.614Z,19.39
2017-04-21T10:16:34.266Z,19.39
2017-04-21T10:17:28.293Z,19.39
2017-04-21T10:18:39.835Z,19.39
2017-04-21T10:19:41.917Z,19.40
2017-04-21T10:20:34.500Z,19.40
2017-04-21T10:21:34.177Z,19.40
2017-04-21T10:22:34.505Z,19.41
2017-04-21T10:23:38.527Z,19.43
2017-04-21T10:24:45.972Z,19.40
2017-04-21T10:25:39.033Z,19.40
2017-04-21T10:26:36.009Z,19.95
2017-04-21T10:27:34.145Z,19.62
2017-04-21T10:28:42.271Z,19.49
2017-04-21T10:29:42.895Z,19.45
2017-04-21T10:30:34.794Z,19.43
2017-04-21T10:31:32.739Z,19.43
2017-04-21T10:32:46.790Z,19.43
2017-04-21T10:33:41.975Z,19.42
2017-04-21T10:34:37.559Z,19.42
2017-04-21T10:35:34.975Z,19.42
2017-04-21T10:36:40.091Z,19.44
2017-04-21T10:37:42.647Z,19.44
2017-04-21T10:38:37.045Z,19.44
2017-04-21T10:39:40.451Z,19.44
2017-04-21T10:40:34.124Z,19.47
2017-04-21T10:41:40.351Z,19.46
2017-04-21T10:42:38.504Z,19.45
2017-04-21T10:43:37.727Z,19.45
2017-04-21T10:44:50.523Z,19.45
2017-04-21T10:45:38.302Z,19.46
2017-04-21T10:46:49.009Z,19.46
2017-04-21T10:47:38.580Z,19.46
2017-04-21T10:48:32.700Z,19.47
2017-04-21T10:49:47.237Z,19.47
2017-04-21T10:50:33.074Z,19.48
2017-04-21T10:51:38.526Z,19.48
2017-04-21T10:52:43.027Z,19.49
2017-04-21T10:53:39.313Z,19.48
2017-04-21T10:54:39.135Z,19.48
2017-04-21T10:55:38.597Z,19.49
2017-04-21T10:56:38.619Z,19.49
2017-04-21T10:57:39.343Z,19.49
2017-04-21T10:58:44.214Z,19.48
2017-04-21T10:59:38.111Z,19.48
2017-04-21T11:00:44.558Z,19.47
2017-04-21T11:01:38.589Z,19.47
2017-04-21T11:02:36.384Z,19.47
2017-04-21T11:03:41.228Z,19.46
2017-04-21T11:04:40.199Z,19.47
2017-04-21T11:05:39.443Z,19.46
2017-04-21T11:06:34.551Z,19.47
2017-04-21T11:07:39.445Z,19.47
2017-04-21T11:08:48.847Z,19.47
2017-04-21T11:09:44.050Z,19.47
2017-04-21T11:10:33.460Z,19.47
2017-04-21T11:11:37.444Z,19.47
2017-04-21T11:12:33.262Z,19.47
2017-04-21T11:13:34.215Z,19.46
2017-04-21T11:14:34.915Z,19.47
2017-04-21T11:15:44.055Z,19.47
2017-04-21T11:16:40.155Z,19.47
2017-04-21T11:17:39.353Z,19.48
2017-04-21T11:18:53.131Z,19.47
2017-04-21T11:19:38.485Z,19.50
2017-04-21T11:20:39.719Z,19.48
2017-04-21T11:21:33.430Z,19.48
2017-04-21T11:22:34.462Z,19.48
2017-04-21T11:23:32.651Z,19.48
2017-04-21T11:24:38.626Z,19.49
2017-04-21T11:25:43.962Z,19.49
2017-04-21T11:26:34.491Z,19.49
2017-04-21T11:27:43.694Z,19.50
2017-04-21T11:28:38.410Z,19.50
2017-04-21T11:29:35.058Z,19.50
2017-04-21T11:30:34.908Z,19.50
2017-04-21T11:31:44.162Z,19.56
2017-04-21T11:32:47.692Z,19.54
2017-04-21T11:33:47.596Z,19.51
2017-04-21T11:34:37.203Z,19.51
2017-04-21T11:35:33.476Z,19.51
2017-04-21T11:36:38.830Z,20.05
2017-04-21T11:37:34.962Z,20.11
2017-04-21T11:38:38.806Z,19.61
2017-04-21T11:39:40.967Z,19.57
2017-04-21T11:40:40.010Z,19.55
2017-04-21T11:41:34.997Z,19.54
2017-04-21T11:42:43.885Z,19.54
2017-04-21T11:43:33.082Z,19.53
2017-04-21T11:44:47.400Z,19.54
2017-04-21T11:45:41.705Z,19.54
2017-04-21T11:46:47.922Z,19.54
2017-04-21T11:47:39.086Z,19.54
2017-04-21T11:48:39.443Z,19.54
2017-04-21T11:49:43.832Z,19.54
2017-04-21T11:50:39.520Z,19.54
2017-04-21T11:51:34.933Z,19.54
2017-04-21T11:52:39.512Z,19.54
2017-04-21T11:53:34.611Z,19.54
2017-04-21T11:54:37.157Z,19.54
2017-04-21T11:55:38.655Z,19.54
2017-04-21T11:56:47.154Z,19.53
2017-04-21T11:57:38.312Z,19.56
2017-04-21T11:58:39.480Z,19.54
2017-04-21T11:59:39.156Z,19.53
2017-04-21T12:00:46.288Z,19.54
2017-04-21T12:01:53.002Z,19.53
2017-04-21T12:02:42.836Z,19.53
2017-04-21T12:03:53.314Z,19.52
2017-04-21T12:04:47.435Z,19.52
2017-04-21T12:05:42.771Z,19.52
2017-04-21T12:06:45.300Z,19.52
2017-04-21T12:07:44.155Z,19.52
2017-04-21T12:08:35.026Z,19.53
2017-04-21T12:09:45.643Z,19.52
2017-04-21T12:10:38.813Z,19.52
2017-04-21T12:11:35.042Z,19.52
2017-04-21T12:12:34.976Z,19.53
2017-04-21T12:13:34.304Z,19.53
2017-04-21T12:14:48.887Z,19.52
2017-04-21T12:15:40.415Z,19.53
2017-04-21T12:16:31.513Z,19.54
2017-04-21T12:17:32.762Z,19.54
2017-04-21T12:18:38.900Z,19.55
2017-04-21T12:19:34.190Z,19.55
2017-04-21T12:20:39.904Z,19.56
2017-04-21T12:21:44.193Z,19.56
2017-04-21T12:22:39.008Z,19.57
2017-04-21T12:23:40.195Z,19.57
2017-04-21T12:24:44.350Z,19.58
2017-04-21T12:25:48.990Z,19.59
2017-04-21T12:26:38.894Z,19.60
2017-04-21T12:27:34.135Z,19.60
2017-04-21T12:28:48.934Z,19.60
2017-04-21T12:29:33.001Z,19.60
2017-04-21T12:30:38.839Z,19.60
2017-04-21T12:31:34.642Z,19.60
2017-04-21T12:32:40.774Z,19.59
2017-04-21T12:33:40.241Z,19.59
2017-04-21T12:34:33.113Z,19.59
2017-04-21T12:35:39.209Z,19.58
2017-04-21T12:36:35.337Z,19.59
2017-04-21T12:37:47.370Z,19.58
2017-04-21T12:38:42.119Z,19.57
2017-04-21T12:39:37.150Z,19.57
2017-04-21T12:40:44.110Z,19.57
2017-04-21T12:41:43.261Z,19.56
2017-04-21T12:42:53.568Z,19.55
2017-04-21T12:43:48.499Z,19.56
2017-04-21T12:44:38.573Z,19.55
2017-04-21T12:45:39.570Z,19.55
2017-04-21T12:46:47.514Z,19.55
2017-04-21T12:47:51.952Z,19.56
2017-04-21T12:48:43.514Z,19.55
2017-04-21T12:49:33.510Z,20.09
2017-04-21T12:50:43.163Z,20.14
2017-04-21T12:51:33.148Z,20.15
2017-04-21T12:52:33.245Z,20.16
2017-04-21T12:53:34.123Z,20.17
2017-04-21T12:54:39.971Z,20.17
2017-04-21T12:55:39.528Z,19.79
2017-04-21T12:56:49.533Z,19.64
2017-04-21T12:57:40.780Z,19.60